Time;durP1;ratioP1;P1;durP2;ratioP2;P2;SDS_P1;SDS_P2;PMS_P1;PMS_P2;Temp;Humidity;BMP_temperature;BMP_pressure;BME280_temperature;BME280_humidity;BME280_pressure;Samples;Min_cycle;Max_cycle;Signal;HPM_P1;HPM_P2
2022/03/18 00:01:03;;;;;;;34.23;16.47;;;9.00;53.60;;;;;;4985933;28;20210;-47
2022/03/18 00:03:30;;;;;;;28.37;15.27;;;9.10;53.10;;;;;;4996135;28;20226;-45
2022/03/18 00:05:57;;;;;;;27.40;15.03;;;9.10;53.10;;;;;;5017183;28;20214;-44
2022/03/18 00:08:24;;;;;;;34.03;16.87;;;9.10;53.00;;;;;;5035229;28;20622;-49
2022/03/18 00:10:51;;;;;;;36.97;17.80;;;9.10;53.10;;;;;;5032784;28;20202;-45
2022/03/18 00:13:19;;;;;;;35.47;17.53;;;9.10;53.20;;;;;;5032631;28;20197;-45
2022/03/18 00:15:46;;;;;;;31.67;16.80;;;9.00;53.10;;;;;;5023265;28;20212;-46
2022/03/18 00:18:14;;;;;;;35.40;17.33;;;9.00;53.10;;;;;;5027070;28;20196;-47
2022/03/18 00:20:41;;;;;;;36.57;17.53;;;9.00;53.10;;;;;;5033198;28;20566;-45
2022/03/18 00:23:08;;;;;;;28.27;15.07;;;9.00;53.10;;;;;;5030612;28;20260;-45
2022/03/18 00:25:35;;;;;;;34.60;16.03;;;8.90;53.10;;;;;;5031781;28;20195;-45
2022/03/18 00:28:03;;;;;;;32.70;16.77;;;8.90;53.20;;;;;;5032377;28;20201;-47
2022/03/18 00:30:30;;;;;;;34.10;17.70;;;8.90;53.20;;;;;;5019951;28;20635;-44
2022/03/18 00:32:57;;;;;;;39.93;18.63;;;8.90;53.40;;;;;;5029778;28;20199;-44
2022/03/18 00:35:26;;;;;;;31.87;15.77;;;8.80;53.50;;;;;;5032214;28;20218;-45
2022/03/18 00:37:53;;;;;;;33.33;16.17;;;8.70;53.50;;;;;;5028711;28;20550;-45
2022/03/18 00:40:20;;;;;;;34.33;16.60;;;8.70;53.70;;;;;;5032217;28;20701;-44
2022/03/18 00:42:48;;;;;;;33.67;16.17;;;8.70;53.80;;;;;;5029876;28;20721;-45
2022/03/18 00:45:15;;;;;;;35.43;16.00;;;8.60;53.80;;;;;;5030761;28;20225;-51
2022/03/18 00:53:13;;;;;;;32.10;15.30;;;8.50;53.90;;;;;;5027810;28;20274;-50
2022/03/18 00:55:40;;;;;;;32.07;14.63;;;8.50;54.00;;;;;;5031916;28;20207;-50
2022/03/18 00:58:07;;;;;;;30.63;14.33;;;8.50;54.00;;;;;;5031891;28;20198;-52
2022/03/18 01:00:35;;;;;;;30.57;15.00;;;8.50;54.10;;;;;;5029454;28;20686;-50
2022/03/18 01:03:02;;;;;;;32.10;15.00;;;8.50;54.10;;;;;;5020052;28;20199;-52
2022/03/18 01:05:30;;;;;;;27.47;14.33;;;8.60;54.10;;;;;;5031836;28;20332;-47
2022/03/18 01:07:58;;;;;;;28.60;13.70;;;8.60;54.00;;;;;;5023522;28;20195;-47
2022/03/18 01:10:25;;;;;;;19.63;11.23;;;8.60;53.90;;;;;;5031702;28;20264;-44
2022/03/18 01:12:52;;;;;;;30.73;14.20;;;8.70;53.90;;;;;;5031683;28;20221;-51
2022/03/18 01:15:19;;;;;;;21.23;11.27;;;8.70;53.90;;;;;;5030111;28;20629;-49
2022/03/18 01:17:46;;;;;;;18.87;10.27;;;8.70;53.80;;;;;;5026077;28;20210;-50
2022/03/18 01:20:13;;;;;;;23.40;10.00;;;8.70;53.70;;;;;;5031292;28;20553;-49
2022/03/18 01:22:43;;;;;;;21.80;10.90;;;8.70;53.70;;;;;;5031023;28;20198;-50
2022/03/18 01:25:10;;;;;;;18.93;10.40;;;8.70;53.70;;;;;;5030688;28;20205;-53
2022/03/18 01:27:37;;;;;;;19.23;9.97;;;8.70;53.60;;;;;;5031653;28;20198;-47
2022/03/18 01:30:05;;;;;;;21.87;12.40;;;8.70;53.60;;;;;;5030396;28;20233;-48
2022/03/18 01:32:33;;;;;;;24.50;12.93;;;8.60;53.60;;;;;;5030460;28;20195;-45
2022/03/18 01:35:01;;;;;;;27.20;13.63;;;8.60;53.80;;;;;;5029700;28;20202;-45
2022/03/18 01:37:28;;;;;;;22.33;12.50;;;8.60;53.80;;;;;;5030625;28;20211;-47
2022/03/18 01:39:57;;;;;;;24.67;12.60;;;8.60;53.80;;;;;;5029282;28;20194;-45
2022/03/18 01:42:24;;;;;;;24.50;13.70;;;8.60;53.90;;;;;;5029305;28;20690;-46
2022/03/18 01:44:51;;;;;;;29.07;14.63;;;8.60;54.00;;;;;;5029905;28;20206;-52
2022/03/18 01:47:19;;;;;;;24.03;12.97;;;8.50;54.00;;;;;;5030883;28;20202;-46
2022/03/18 01:49:46;;;;;;;27.13;13.40;;;8.50;54.00;;;;;;5030746;28;20194;-49
2022/03/18 01:52:13;;;;;;;29.10;15.13;;;8.50;54.00;;;;;;5027867;28;20203;-50
2022/03/18 01:54:47;;;;;;;29.73;15.13;;;8.40;54.00;;;;;;5032531;28;20191;-52
2022/03/18 01:57:19;;;;;;;28.53;14.43;;;8.40;54.10;;;;;;5021123;28;20640;-50
2022/03/18 01:59:47;;;;;;;26.27;13.93;;;8.30;54.10;;;;;;5022946;28;20202;-49
2022/03/18 02:02:15;;;;;;;27.50;13.50;;;8.30;54.20;;;;;;5019818;28;20202;-50
2022/03/18 02:04:42;;;;;;;26.20;13.93;;;8.20;54.20;;;;;;5026144;28;20614;-47
2022/03/18 02:07:10;;;;;;;21.23;10.90;;;8.20;54.30;;;;;;5019907;28;20618;-47
2022/03/18 02:09:38;;;;;;;27.07;13.43;;;8.20;54.20;;;;;;5020924;28;20222;-49
2022/03/18 02:12:07;;;;;;;32.63;15.60;;;8.20;54.30;;;;;;5024323;28;20283;-47
2022/03/18 02:14:37;;;;;;;27.93;14.13;;;8.20;54.30;;;;;;5030033;28;20199;-45
2022/03/18 02:17:06;;;;;;;24.17;11.63;;;8.20;54.60;;;;;;5019437;28;20687;-44
2022/03/18 02:19:34;;;;;;;23.43;12.27;;;8.20;54.20;;;;;;5023380;28;20198;-45
2022/03/18 02:22:03;;;;;;;24.67;12.80;;;8.20;54.20;;;;;;5027816;28;20282;-46
2022/03/18 02:24:31;;;;;;;22.53;11.80;;;8.30;54.90;;;;;;5028133;28;20198;-44
2022/03/18 02:26:58;;;;;;;25.67;13.10;;;8.30;54.20;;;;;;5022101;28;20191;-45
2022/03/18 02:29:25;;;;;;;23.33;12.50;;;8.30;54.20;;;;;;5026027;28;20613;-49
2022/03/18 02:31:52;;;;;;;23.10;11.80;;;8.30;54.20;;;;;;5024872;28;20198;-46
2022/03/18 02:34:19;;;;;;;24.47;12.57;;;8.20;54.00;;;;;;5029822;28;20583;-48
2022/03/18 02:36:47;;;;;;;27.63;13.13;;;8.20;54.20;;;;;;5026092;28;20210;-51
2022/03/18 02:39:14;;;;;;;22.33;11.20;;;8.10;54.10;;;;;;5025631;28;20194;-44
2022/03/18 02:41:43;;;;;;;25.33;13.23;;;8.10;54.10;;;;;;5030563;28;20230;-44
2022/03/18 02:44:10;;;;;;;21.40;10.87;;;8.10;54.10;;;;;;5029074;28;20546;-46
2022/03/18 02:46:37;;;;;;;18.70;9.83;;;8.10;54.00;;;;;;5021354;28;20278;-46
2022/03/18 02:49:05;;;;;;;18.43;9.53;;;8.10;54.00;;;;;;5030018;28;20245;-43
2022/03/18 02:51:36;;;;;;;21.07;10.90;;;8.00;53.90;;;;;;5023753;28;20511;-47
2022/03/18 02:54:03;;;;;;;22.53;11.60;;;8.00;54.00;;;;;;5019506;28;20260;-45
2022/03/18 02:56:31;;;;;;;22.97;10.80;;;8.00;54.00;;;;;;5019852;28;20265;-45
2022/03/18 02:59:00;;;;;;;22.87;10.43;;;7.90;53.80;;;;;;5020391;28;20308;-43
2022/03/18 03:01:27;;;;;;;19.93;9.67;;;7.90;53.80;;;;;;5017082;28;20289;-50
2022/03/18 03:03:55;;;;;;;24.07;11.60;;;8.00;53.80;;;;;;5018735;28;20310;-45
2022/03/18 03:09:06;;;;;;;24.67;12.10;;;8.00;53.50;;;;;;5020614;28;20202;-46
2022/03/18 03:11:34;;;;;;;21.77;11.57;;;7.90;53.30;;;;;;5037199;28;20676;-45
2022/03/18 03:14:03;;;;;;;24.23;11.60;;;7.90;53.40;;;;;;5024445;28;20206;-46
2022/03/18 03:16:30;;;;;;;24.80;12.80;;;7.80;53.30;;;;;;5012450;28;20297;-45
2022/03/18 03:18:57;;;;;;;27.10;13.13;;;7.70;53.20;;;;;;5029677;28;20687;-45
2022/03/18 03:21:25;;;;;;;26.10;13.27;;;7.70;53.30;;;;;;5028735;28;20610;-44
2022/03/18 03:23:53;;;;;;;25.57;12.67;;;7.70;53.30;;;;;;5028677;28;20213;-46
2022/03/18 03:26:20;;;;;;;29.73;13.20;;;7.60;53.30;;;;;;5029641;28;20537;-44
2022/03/18 03:28:47;;;;;;;26.20;13.30;;;7.50;53.20;;;;;;5029672;28;20195;-44
2022/03/18 03:31:16;;;;;;;31.07;14.03;;;7.50;53.20;;;;;;5026958;28;20619;-47
2022/03/18 03:33:44;;;;;;;25.63;12.10;;;7.50;53.20;;;;;;5023606;28;20645;-44
2022/03/18 03:36:11;;;;;;;23.50;10.53;;;7.40;53.20;;;;;;5025105;28;20241;-46
2022/03/18 03:38:38;;;;;;;24.93;10.97;;;7.40;53.30;;;;;;5019380;28;20272;-47
2022/03/18 03:41:05;;;;;;;24.30;10.70;;;7.30;53.30;;;;;;5009425;28;20197;-47
2022/03/18 03:43:33;;;;;;;29.40;12.63;;;7.30;53.30;;;;;;5028925;28;20207;-48
2022/03/18 03:46:00;;;;;;;33.10;12.63;;;7.30;53.20;;;;;;5027915;28;20251;-48
2022/03/18 03:48:29;;;;;;;32.87;13.20;;;7.30;53.20;;;;;;5027259;28;20202;-43
2022/03/18 03:50:56;;;;;;;34.57;13.97;;;7.30;53.20;;;;;;5027879;28;20671;-43
2022/03/18 03:53:23;;;;;;;30.43;12.63;;;7.30;53.10;;;;;;5029191;28;20225;-45
2022/03/18 03:55:50;;;;;;;32.07;14.20;;;7.40;53.20;;;;;;5029337;28;20659;-44
2022/03/18 03:58:18;;;;;;;35.43;15.10;;;7.30;53.10;;;;;;5023982;28;20786;-46
2022/03/18 04:00:45;;;;;;;29.57;14.27;;;7.30;53.10;;;;;;5019244;28;20195;-46
2022/03/18 04:03:13;;;;;;;32.13;14.37;;;7.30;53.00;;;;;;5018158;28;20313;-48
2022/03/18 04:05:41;;;;;;;29.80;13.53;;;7.30;52.90;;;;;;5019890;28;20312;-46
2022/03/18 04:08:08;;;;;;;26.97;12.53;;;7.30;52.80;;;;;;5023326;28;20194;-44
2022/03/18 04:10:42;;;;;;;19.73;9.87;;;7.20;52.80;;;;;;5021755;28;20224;-46
2022/03/18 04:13:10;;;;;;;26.07;11.90;;;7.20;52.80;;;;;;5022825;28;20297;-48
2022/03/18 04:15:38;;;;;;;26.03;12.07;;;7.20;52.80;;;;;;5007273;28;20202;-45
2022/03/18 04:18:05;;;;;;;22.63;11.07;;;7.10;52.70;;;;;;5015369;28;20215;-49
2022/03/18 04:20:33;;;;;;;24.73;11.83;;;7.10;52.80;;;;;;5020815;28;20305;-48
2022/03/18 04:23:02;;;;;;;27.53;11.80;;;7.10;52.80;;;;;;5012623;28;20292;-49
2022/03/18 04:25:29;;;;;;;32.47;15.27;;;7.00;52.80;;;;;;5025256;28;20198;-48
2022/03/18 04:27:56;;;;;;;29.33;15.30;;;7.00;52.80;;;;;;5026057;28;20654;-44
2022/03/18 04:30:23;;;;;;;27.37;14.27;;;6.90;52.80;;;;;;5020462;28;20207;-47
2022/03/18 04:32:50;;;;;;;32.07;13.77;;;6.90;52.90;;;;;;5013922;28;20197;-46
2022/03/18 04:35:18;;;;;;;24.50;12.80;;;6.90;52.90;;;;;;5004156;28;20206;-48
2022/03/18 04:37:45;;;;;;;25.73;13.13;;;6.90;52.90;;;;;;5019043;28;20779;-46
2022/03/18 04:40:14;;;;;;;29.67;12.83;;;6.90;52.90;;;;;;5024017;28;20203;-46
2022/03/18 04:42:44;;;;;;;28.60;12.63;;;6.90;52.90;;;;;;5023939;28;20208;-45
2022/03/18 04:45:11;;;;;;;29.70;12.87;;;6.90;53.10;;;;;;5027496;28;20559;-44
2022/03/18 04:47:38;;;;;;;27.60;12.33;;;6.80;53.00;;;;;;5027912;28;20196;-46
2022/03/18 04:50:07;;;;;;;27.40;12.57;;;6.80;53.10;;;;;;5017622;28;20212;-43
2022/03/18 04:52:34;;;;;;;29.47;13.00;;;6.80;53.10;;;;;;5031191;28;20209;-43
2022/03/18 04:55:01;;;;;;;23.27;12.00;;;6.70;53.00;;;;;;5032055;28;20667;-44
2022/03/18 04:57:31;;;;;;;23.23;10.70;;;6.70;53.00;;;;;;5031549;28;20233;-45
2022/03/18 04:59:58;;;;;;;27.50;12.60;;;6.60;53.00;;;;;;5025113;28;20194;-46
2022/03/18 05:02:26;;;;;;;28.10;12.57;;;6.60;53.10;;;;;;5026886;28;20198;-44
2022/03/18 05:04:54;;;;;;;24.17;11.93;;;6.50;53.00;;;;;;5024596;28;20246;-43
2022/03/18 05:07:22;;;;;;;25.03;12.63;;;6.50;53.10;;;;;;5009197;28;20605;-44
2022/03/18 05:09:49;;;;;;;28.20;13.33;;;6.40;53.00;;;;;;5005008;28;20677;-48
2022/03/18 05:12:18;;;;;;;29.53;12.70;;;6.40;53.10;;;;;;5031410;28;20268;-48
2022/03/18 05:14:47;;;;;;;29.07;12.60;;;6.40;53.10;;;;;;5015814;28;20202;-48
2022/03/18 05:17:14;;;;;;;25.50;12.63;;;6.40;53.10;;;;;;5019365;28;20206;-49
2022/03/18 05:19:41;;;;;;;26.17;12.83;;;6.30;53.00;;;;;;5023998;28;20200;-52
2022/03/18 05:22:09;;;;;;;24.90;12.37;;;6.30;53.10;;;;;;5029430;28;20202;-45
2022/03/18 05:24:36;;;;;;;21.83;11.60;;;6.30;53.10;;;;;;5020366;28;20211;-46
2022/03/18 05:27:04;;;;;;;21.43;11.33;;;6.30;53.00;;;;;;5031135;28;20191;-45
2022/03/18 05:29:32;;;;;;;23.63;11.30;;;6.20;53.00;;;;;;5025291;28;20201;-46
2022/03/18 05:32:01;;;;;;;21.37;11.17;;;6.20;53.10;;;;;;5023784;28;20205;-47
2022/03/18 05:34:28;;;;;;;19.63;10.80;;;6.20;53.20;;;;;;5025440;28;20208;-46
2022/03/18 05:36:56;;;;;;;25.43;11.10;;;6.20;53.20;;;;;;5024897;28;20682;-45
2022/03/18 05:39:23;;;;;;;27.13;11.87;;;6.20;53.10;;;;;;5028098;28;20736;-49
2022/03/18 05:41:50;;;;;;;25.10;12.47;;;6.20;53.10;;;;;;5032379;28;20562;-45
2022/03/18 05:44:18;;;;;;;31.87;12.67;;;6.20;53.00;;;;;;5014268;28;20346;-45
2022/03/18 05:46:45;;;;;;;25.63;12.10;;;6.30;53.00;;;;;;5021609;28;20199;-47
2022/03/18 05:49:15;;;;;;;31.10;12.47;;;6.30;53.00;;;;;;5019572;28;20198;-47
2022/03/18 05:51:42;;;;;;;30.77;12.90;;;6.40;53.00;;;;;;5025919;28;20218;-48
2022/03/18 05:54:09;;;;;;;22.27;10.17;;;6.40;52.90;;;;;;5024180;28;20222;-47
2022/03/18 05:56:55;;;;;;;16.90;8.97;;;6.40;52.80;;;;;;5028642;28;20557;-51
2022/03/18 05:59:24;;;;;;;19.40;8.83;;;6.50;52.80;;;;;;5025444;28;20196;-53
2022/03/18 06:01:53;;;;;;;20.77;9.73;;;6.60;52.80;;;;;;5007648;28;20211;-53
2022/03/18 06:04:22;;;;;;;20.50;9.33;;;6.60;52.70;;;;;;5017614;28;20815;-47
2022/03/18 06:06:49;;;;;;;21.77;10.83;;;6.60;52.60;;;;;;5017321;28;20201;-48
2022/03/18 06:12:02;;;;;;;18.60;9.40;;;6.70;52.70;;;;;;5018186;28;20329;-46
2022/03/18 06:14:31;;;;;;;17.97;8.43;;;6.80;52.80;;;;;;5022227;28;20206;-46
2022/03/18 06:17:01;;;;;;;16.00;8.57;;;6.90;52.80;;;;;;5028945;28;20695;-49
2022/03/18 06:19:30;;;;;;;16.40;9.00;;;6.90;52.80;;;;;;5030584;28;20314;-51
2022/03/18 06:21:58;;;;;;;21.17;8.87;;;6.90;52.80;;;;;;5022498;28;20203;-50
2022/03/18 06:24:26;;;;;;;24.27;10.70;;;7.00;52.90;;;;;;5025965;28;20536;-50
2022/03/18 06:26:53;;;;;;;19.00;9.57;;;7.10;52.90;;;;;;5030185;28;20201;-49
2022/03/18 06:29:21;;;;;;;27.87;11.47;;;7.10;52.90;;;;;;5024085;28;20202;-49
2022/03/18 06:31:49;;;;;;;29.97;11.47;;;7.20;53.00;;;;;;5029292;28;20200;-51
2022/03/18 06:34:20;;;;;;;37.87;13.00;;;7.30;52.90;;;;;;5023812;28;20198;-52
2022/03/18 06:36:49;;;;;;;35.17;13.60;;;7.30;52.80;;;;;;5023564;28;20206;-50
2022/03/18 06:39:17;;;;;;;30.77;14.20;;;7.30;52.50;;;;;;5027205;28;20199;-51
2022/03/18 06:41:45;;;;;;;31.97;13.77;;;7.30;52.50;;;;;;5029984;28;20198;-49
2022/03/18 06:44:12;;;;;;;36.00;12.53;;;7.30;52.50;;;;;;5024835;28;20688;-53
2022/03/18 06:46:39;;;;;;;32.23;12.03;;;7.40;52.60;;;;;;5027758;28;20196;-47
2022/03/18 06:49:07;;;;;;;27.33;12.80;;;7.50;52.50;;;;;;5029779;28;20200;-46
2022/03/18 06:51:35;;;;;;;27.80;12.10;;;7.50;52.20;;;;;;5024600;28;20210;-44
2022/03/18 06:54:04;;;;;;;21.23;11.67;;;7.50;52.10;;;;;;5025804;28;20204;-49
2022/03/18 06:56:31;;;;;;;28.07;11.83;;;7.60;52.00;;;;;;5022518;28;20257;-46
2022/03/18 06:58:59;;;;;;;27.70;12.80;;;7.70;52.00;;;;;;5021430;28;20233;-47
2022/03/18 07:01:27;;;;;;;26.23;12.07;;;7.70;51.80;;;;;;5012869;28;20299;-50
2022/03/18 07:03:54;;;;;;;27.73;12.37;;;7.80;51.80;;;;;;5016691;28;20248;-48
2022/03/18 07:06:21;;;;;;;24.73;10.97;;;7.90;51.70;;;;;;5027021;28;20202;-45
2022/03/18 07:08:48;;;;;;;18.67;9.77;;;8.00;51.50;;;;;;5008342;28;20206;-46
2022/03/18 07:11:17;;;;;;;20.83;9.53;;;8.10;51.30;;;;;;5028888;28;20194;-46
2022/03/18 07:13:45;;;;;;;18.03;8.77;;;8.10;51.10;;;;;;5023494;28;20776;-45
2022/03/18 07:18:53;;;;;;;19.57;9.80;;;8.30;50.40;;;;;;4988899;28;20277;-45
2022/03/18 07:21:21;;;;;;;15.50;8.57;;;8.30;49.80;;;;;;5028510;28;20638;-49
2022/03/18 07:23:49;;;;;;;18.43;8.57;;;8.40;49.70;;;;;;5016759;28;20232;-50
2022/03/18 07:26:17;;;;;;;21.57;10.10;;;8.50;49.50;;;;;;5005422;28;20199;-50
2022/03/18 07:28:44;;;;;;;16.87;8.87;;;8.70;49.10;;;;;;5019220;28;20203;-49
2022/03/18 07:31:11;;;;;;;19.10;9.57;;;8.70;48.50;;;;;;5014938;28;20202;-48
2022/03/18 07:33:39;;;;;;;17.37;8.90;;;8.80;48.40;;;;;;5022032;28;20230;-46
2022/03/18 07:36:06;;;;;;;15.17;8.07;;;8.90;48.20;;;;;;5024808;28;20728;-46
2022/03/18 07:38:33;;;;;;;15.87;8.43;;;9.00;47.70;;;;;;5022995;28;20590;-43
2022/03/18 07:41:01;;;;;;;17.23;8.00;;;9.10;47.30;;;;;;5028734;28;20198;-46
2022/03/18 07:43:29;;;;;;;14.80;7.83;;;9.20;47.10;;;;;;5029711;28;20198;-47
2022/03/18 07:45:56;;;;;;;23.50;9.10;;;9.40;47.10;;;;;;5024876;28;20518;-47
2022/03/18 07:48:26;;;;;;;18.57;8.43;;;9.50;46.40;;;;;;5025190;28;20212;-44
2022/03/18 07:50:53;;;;;;;14.17;7.37;;;9.60;46.10;;;;;;5023326;28;20198;-46
2022/03/18 07:53:20;;;;;;;15.33;7.80;;;9.80;45.90;;;;;;5024447;28;20598;-47
2022/03/18 07:55:48;;;;;;;12.50;7.30;;;9.90;45.30;;;;;;5024200;28;20748;-48
2022/03/18 07:58:15;;;;;;;15.53;7.60;;;10.00;44.20;;;;;;5022459;28;20214;-47
2022/03/18 08:00:44;;;;;;;17.50;7.77;;;10.10;44.10;;;;;;5026447;28;20188;-46
2022/03/18 08:03:12;;;;;;;16.57;7.30;;;10.20;43.60;;;;;;5027061;28;20231;-47
2022/03/18 08:05:40;;;;;;;11.97;6.77;;;10.40;43.60;;;;;;5002889;28;20215;-49
2022/03/18 08:08:07;;;;;;;13.93;7.77;;;10.80;43.40;;;;;;4998576;28;20193;-49
2022/03/18 08:10:35;;;;;;;15.87;8.33;;;11.30;42.90;;;;;;5008981;28;20203;-45
2022/03/18 08:13:03;;;;;;;14.53;7.30;;;11.90;42.20;;;;;;5006673;28;20227;-45
2022/03/18 08:15:30;;;;;;;14.23;7.70;;;12.30;41.20;;;;;;5003664;28;20218;-48
2022/03/18 08:17:59;;;;;;;14.73;7.57;;;12.70;39.90;;;;;;4996004;28;20695;-47
2022/03/18 08:20:26;;;;;;;13.53;7.20;;;13.20;39.60;;;;;;5004952;28;20349;-44
2022/03/18 08:22:55;;;;;;;14.83;6.90;;;13.80;39.30;;;;;;5007126;28;20213;-44
2022/03/18 08:25:22;;;;;;;15.40;6.90;;;14.40;38.70;;;;;;5009886;28;20566;-44
2022/03/18 08:27:50;;;;;;;17.23;7.57;;;14.90;38.00;;;;;;5011542;28;20198;-50
2022/03/18 08:30:18;;;;;;;16.40;7.97;;;15.30;36.70;;;;;;5010674;28;20681;-50
2022/03/18 08:32:46;;;;;;;16.20;7.17;;;15.40;36.00;;;;;;5008329;28;20774;-50
2022/03/18 08:35:15;;;;;;;15.90;7.93;;;15.60;35.80;;;;;;5012123;28;20207;-50
2022/03/18 08:37:57;;;;;;;13.30;7.10;;;15.70;34.70;;;;;;5011297;28;20544;-50
2022/03/18 08:40:26;;;;;;;12.23;6.07;;;15.90;34.60;;;;;;5006697;28;20218;-45
2022/03/18 08:42:53;;;;;;;11.47;6.50;;;16.40;34.60;;;;;;5012323;28;20418;-47
2022/03/18 08:45:20;;;;;;;14.10;6.83;;;16.80;34.30;;;;;;5009743;28;20203;-44
2022/03/18 08:47:48;;;;;;;18.07;7.43;;;17.20;34.00;;;;;;5010108;28;20567;-46
2022/03/18 08:50:17;;;;;;;14.73;7.57;;;17.20;33.20;;;;;;5012093;28;20708;-45
2022/03/18 08:52:45;;;;;;;11.57;6.97;;;17.00;32.50;;;;;;5006636;28;20260;-44
2022/03/18 08:55:13;;;;;;;11.13;6.13;;;17.00;33.10;;;;;;5008814;28;20411;-46
2022/03/18 08:57:40;;;;;;;9.90;5.97;;;16.80;33.00;;;;;;5017529;28;20205;-43
2022/03/18 09:00:09;;;;;;;10.33;5.27;;;16.60;33.40;;;;;;5008381;28;20608;-47
2022/03/18 09:02:38;;;;;;;11.67;6.87;;;16.60;33.70;;;;;;5008048;28;20248;-51
2022/03/18 09:05:07;;;;;;;11.83;6.53;;;17.10;33.10;;;;;;5014526;28;20246;-47
2022/03/18 09:07:37;;;;;;;12.40;6.60;;;17.60;32.70;;;;;;5007640;28;20299;-48
2022/03/18 09:10:05;;;;;;;13.47;6.80;;;18.20;32.00;;;;;;4990157;28;20203;-46
2022/03/18 09:12:33;;;;;;;12.27;6.90;;;18.50;31.40;;;;;;5007492;28;20194;-45
2022/03/18 09:15:02;;;;;;;9.83;6.07;;;18.50;31.00;;;;;;5008756;28;21061;-51
2022/03/18 09:17:29;;;;;;;10.90;6.30;;;18.40;31.40;;;;;;5011028;28;20678;-45
2022/03/18 09:19:57;;;;;;;10.67;6.53;;;18.50;31.50;;;;;;5010005;28;20223;-49
2022/03/18 09:22:24;;;;;;;11.13;6.90;;;18.70;31.10;;;;;;5010703;28;20737;-49
2022/03/18 09:24:52;;;;;;;10.83;6.57;;;19.00;30.90;;;;;;5011066;28;20226;-49
2022/03/18 09:27:19;;;;;;;8.70;6.03;;;19.40;30.40;;;;;;5008114;28;20195;-46
2022/03/18 09:29:46;;;;;;;7.57;5.77;;;19.50;29.60;;;;;;5013276;28;20575;-46
2022/03/18 09:32:15;;;;;;;8.37;5.80;;;19.40;29.40;;;;;;5016958;28;20677;-46
2022/03/18 09:34:42;;;;;;;14.43;6.07;;;19.50;29.50;;;;;;5002936;28;20197;-49
2022/03/18 09:37:09;;;;;;;10.17;6.10;;;19.70;29.50;;;;;;5011435;28;20196;-48
2022/03/18 09:39:36;;;;;;;8.93;5.63;;;20.10;29.00;;;;;;5013392;28;20709;-49
2022/03/18 09:42:06;;;;;;;11.47;5.87;;;20.60;29.10;;;;;;5008629;28;20205;-45
2022/03/18 09:44:36;;;;;;;9.50;5.57;;;21.30;28.90;;;;;;5011330;28;20195;-49
2022/03/18 09:47:04;;;;;;;9.48;6.85;;;22.20;28.40;;;;;;5010997;28;20206;-44
2022/03/18 09:49:32;;;;;;;12.45;7.18;;;23.10;27.80;;;;;;5009235;28;20733;-52
2022/03/18 09:51:59;;;;;;;11.00;6.60;;;23.80;26.70;;;;;;5012794;28;20203;-43
2022/03/18 09:54:27;;;;;;;13.02;7.05;;;24.40;26.60;;;;;;5012217;28;20547;-45
2022/03/18 09:56:54;;;;;;;8.95;6.55;;;24.80;25.90;;;;;;5009006;28;20679;-44
2022/03/18 09:59:24;;;;;;;11.05;6.78;;;25.10;25.70;;;;;;5013865;28;20298;-46
2022/03/18 10:02:12;;;;;;;10.02;6.18;;;25.50;25.50;;;;;;5003590;28;20226;-45
2022/03/18 10:04:52;;;;;;;10.80;6.97;;;26.00;25.30;;;;;;5013181;28;20250;-48
2022/03/18 10:07:21;;;;;;;9.85;6.60;;;26.50;24.50;;;;;;5011725;28;20229;-47
2022/03/18 10:09:49;;;;;;;9.25;6.13;;;26.70;23.90;;;;;;5007617;28;20206;-45
2022/03/18 10:12:33;;;;;;;8.80;6.35;;;26.80;24.20;;;;;;5008777;28;20654;-49
2022/03/18 10:15:11;;;;;;;11.20;6.38;;;27.00;24.30;;;;;;5011535;28;22007;-49
2022/03/18 10:17:43;;;;;;;8.90;6.20;;;27.30;23.80;;;;;;5011932;28;20201;-48
2022/03/18 10:20:25;;;;;;;9.90;6.57;;;27.50;23.70;;;;;;5022193;28;20211;-48
2022/03/18 10:22:54;;;;;;;8.23;5.20;;;27.60;23.40;;;;;;5016409;28;20193;-49
2022/03/18 10:25:42;;;;;;;9.18;6.40;;;27.80;23.30;;;;;;5028788;28;20209;-49
2022/03/18 10:28:10;;;;;;;9.57;6.07;;;27.70;22.70;;;;;;5034185;28;20194;-51
2022/03/18 10:30:39;;;;;;;10.85;6.07;;;27.70;22.70;;;;;;5019594;28;20320;-47
2022/03/18 10:33:06;;;;;;;9.38;6.65;;;27.70;22.90;;;;;;5029136;28;20207;-49
2022/03/18 10:38:35;;;;;;;11.27;6.47;;;27.50;22.60;;;;;;5023253;28;20783;-47
2022/03/18 10:41:07;;;;;;;8.13;5.85;;;27.50;22.10;;;;;;5030743;28;20210;-50
2022/03/18 10:43:53;;;;;;;7.97;6.13;;;27.60;21.80;;;;;;5030433;28;20300;-50
2022/03/18 10:46:22;;;;;;;9.95;6.68;;;27.80;21.90;;;;;;5021591;28;20194;-49
2022/03/18 10:49:03;;;;;;;7.45;5.68;;;28.00;21.70;;;;;;5029318;28;20198;-52
2022/03/18 10:51:31;;;;;;;11.25;6.15;;;27.90;21.80;;;;;;5022124;28;20290;-51
2022/03/18 10:53:59;;;;;;;8.93;6.40;;;28.00;21.40;;;;;;5027838;28;20213;-49
2022/03/18 10:56:26;;;;;;;8.57;5.90;;;27.90;21.40;;;;;;5027920;28;20202;-51
2022/03/18 10:58:53;;;;;;;10.35;5.75;;;27.90;21.30;;;;;;5026342;28;20211;-48
2022/03/18 11:01:24;;;;;;;9.98;6.18;;;27.80;21.30;;;;;;5029325;28;20199;-45
2022/03/18 11:03:51;;;;;;;11.65;6.40;;;27.90;21.50;;;;;;5025288;28;20722;-53
2022/03/18 11:06:19;;;;;;;7.60;5.95;;;28.10;21.10;;;;;;5012134;28;20191;-46
2022/03/18 11:08:47;;;;;;;6.53;5.55;;;28.00;21.60;;;;;;5015430;28;20275;-48
2022/03/18 11:11:17;;;;;;;5.45;4.70;;;28.10;21.30;;;;;;5008212;28;20337;-47
2022/03/18 11:13:50;;;;;;;8.20;5.40;;;28.50;21.00;;;;;;5016290;28;20718;-48
2022/03/18 11:16:24;;;;;;;7.20;4.75;;;28.70;20.50;;;;;;5020190;28;20214;-48
2022/03/18 11:18:52;;;;;;;8.00;5.90;;;28.80;20.60;;;;;;4998811;28;20219;-46
2022/03/18 11:21:21;;;;;;;9.23;6.38;;;29.00;20.40;;;;;;5020544;28;20202;-49
2022/03/18 11:23:50;;;;;;;7.95;6.45;;;29.10;19.80;;;;;;5016544;28;20212;-45
2022/03/18 11:26:19;;;;;;;6.82;5.85;;;29.10;19.70;;;;;;5011186;28;20199;-47
2022/03/18 11:28:46;;;;;;;10.52;5.70;;;29.00;19.90;;;;;;5007927;28;20210;-47
2022/03/18 11:31:18;;;;;;;9.52;6.50;;;29.10;19.80;;;;;;5020359;28;20209;-46
2022/03/18 11:34:15;;;;;;;6.65;5.38;;;29.10;19.70;;;;;;4982674;28;20255;-48
2022/03/18 11:36:47;;;;;;;5.63;5.03;;;29.10;19.70;;;;;;5005351;28;20306;-48
2022/03/18 11:39:20;;;;;;;6.68;5.22;;;29.20;19.80;;;;;;4999732;28;20261;-48
2022/03/18 11:41:53;;;;;;;7.40;5.88;;;29.40;20.00;;;;;;5008972;28;20206;-45
2022/03/18 11:44:49;;;;;;;7.03;5.55;;;29.50;19.80;;;;;;5009490;28;20622;-52
2022/03/18 11:47:44;;;;;;;7.65;6.20;;;29.50;19.90;;;;;;5001934;28;20563;-49
2022/03/18 11:50:45;;;;;;;9.65;5.90;;;29.50;19.80;;;;;;4993019;28;20207;-48
2022/03/18 11:53:31;;;;;;;7.95;5.95;;;29.60;19.60;;;;;;5005170;28;20609;-51
2022/03/18 11:56:09;;;;;;;8.05;6.07;;;29.70;19.70;;;;;;4996037;28;20326;-50
2022/03/18 11:58:36;;;;;;;10.35;7.13;;;29.60;19.60;;;;;;5006814;28;20206;-51
2022/03/18 12:01:04;;;;;;;9.38;6.32;;;29.50;18.90;;;;;;5010877;28;20565;-48
2022/03/18 12:03:37;;;;;;;11.25;6.90;;;29.70;19.30;;;;;;5012390;28;20195;-51
2022/03/18 12:06:07;;;;;;;9.90;6.65;;;29.80;19.10;;;;;;5029256;28;20195;-51
2022/03/18 12:08:58;;;;;;;8.45;6.68;;;29.80;18.90;;;;;;5027534;28;20293;-48
2022/03/18 12:11:35;;;;;;;8.43;5.80;;;30.00;19.00;;;;;;5032080;28;20218;-51
2022/03/18 12:14:03;;;;;;;7.53;6.03;;;30.10;19.10;;;;;;5030084;28;20198;-45
2022/03/18 12:16:31;;;;;;;9.55;6.60;;;29.90;19.10;;;;;;5030745;28;20206;-47
2022/03/18 12:19:09;;;;;;;10.02;6.70;;;29.70;18.90;;;;;;5031281;28;20222;-45
2022/03/18 12:21:42;;;;;;;13.13;7.35;;;28.60;19.00;;;;;;5031017;28;20228;-52
2022/03/18 12:24:11;;;;;;;9.32;5.60;;;27.30;19.30;;;;;;5032207;28;20186;-44
2022/03/18 12:26:39;;;;;;;8.02;5.70;;;26.20;19.80;;;;;;5025932;28;20668;-49
2022/03/18 12:29:07;;;;;;;9.13;6.35;;;25.20;20.20;;;;;;5032343;28;20207;-50
2022/03/18 12:31:35;;;;;;;8.45;5.47;;;24.70;20.50;;;;;;5027793;28;20210;-44
2022/03/18 12:34:07;;;;;;;10.75;6.47;;;24.30;20.60;;;;;;5027917;28;20202;-52
2022/03/18 12:36:36;;;;;;;9.35;6.55;;;24.00;20.60;;;;;;5027302;28;20666;-49
2022/03/18 12:39:07;;;;;;;8.98;6.30;;;23.50;20.70;;;;;;5024213;28;20233;-45
2022/03/18 12:41:35;;;;;;;8.60;5.95;;;23.00;21.00;;;;;;5029253;28;20285;-44
2022/03/18 12:44:02;;;;;;;9.10;5.10;;;22.50;21.30;;;;;;5031755;28;20205;-45
2022/03/18 12:46:31;;;;;;;12.27;6.68;;;22.10;21.60;;;;;;5029105;28;20613;-45
2022/03/18 12:48:58;;;;;;;11.48;6.05;;;21.60;21.70;;;;;;5031280;28;20225;-44
2022/03/18 12:51:25;;;;;;;8.88;5.90;;;21.20;22.00;;;;;;5032170;28;20187;-44
2022/03/18 12:53:53;;;;;;;8.18;5.03;;;20.90;22.20;;;;;;5027740;28;20674;-50
2022/03/18 12:56:41;;;;;;;6.50;5.07;;;20.10;22.00;;;;;;5034474;28;20209;-46
2022/03/18 12:59:14;;;;;;;6.82;5.15;;;20.40;22.50;;;;;;5013379;28;20610;-44
2022/03/18 13:01:51;;;;;;;8.43;5.15;;;20.20;22.50;;;;;;5023179;28;20203;-45
2022/03/18 13:04:20;;;;;;;9.30;5.55;;;20.00;22.70;;;;;;5028074;28;20265;-45
2022/03/18 13:06:51;;;;;;;9.32;5.70;;;19.80;22.80;;;;;;5029178;28;20195;-46